createdAt,value
2019-02-27T00:00:30.690Z,99.90
2019-02-27T00:03:11.882Z,99.90
2019-02-27T00:05:51.681Z,99.90
2019-02-27T00:08:31.223Z,99.90
2019-02-27T00:11:12.391Z,99.90
2019-02-27T00:13:52.010Z,99.90
2019-02-27T00:16:33.540Z,99.90
2019-02-27T00:19:12.975Z,99.90
2019-02-27T00:21:52.205Z,99.90
2019-02-27T00:24:31.685Z,99.90
2019-02-27T00:27:14.601Z,99.90
2019-02-27T00:29:54.821Z,99.90
2019-02-27T00:32:33.980Z,99.90
2019-02-27T00:35:14.201Z,99.90
2019-02-27T00:37:55.491Z,99.90
2019-02-27T00:40:38.538Z,99.90
2019-02-27T00:43:16.529Z,99.90
2019-02-27T00:45:56.472Z,99.90
2019-02-27T00:48:37.550Z,99.90
2019-02-27T00:51:18.370Z,99.90
2019-02-27T00:53:58.441Z,99.90
2019-02-27T00:56:38.364Z,99.90
2019-02-27T00:59:18.769Z,99.90
2019-02-27T01:01:59.439Z,99.90
2019-02-27T01:04:38.708Z,99.90
2019-02-27T01:07:20.672Z,99.90
2019-02-27T01:10:00.333Z,99.90
2019-02-27T01:12:40.286Z,99.90
2019-02-27T01:15:19.592Z,99.90
2019-02-27T01:17:59.734Z,99.90
2019-02-27T01:20:40.147Z,99.90
2019-02-27T01:23:19.468Z,99.90
2019-02-27T01:25:59.426Z,99.90
2019-02-27T01:28:39.294Z,99.90
2019-02-27T01:31:19.179Z,99.90
2019-02-27T01:33:58.576Z,99.90
2019-02-27T01:36:37.998Z,99.90
2019-02-27T01:39:18.933Z,99.90
2019-02-27T01:41:58.604Z,99.90
2019-02-27T01:44:38.969Z,99.90
2019-02-27T01:47:19.925Z,99.90
2019-02-27T01:50:00.492Z,99.90
2019-02-27T01:52:39.700Z,99.90
2019-02-27T01:55:21.686Z,99.90
2019-02-27T01:58:00.011Z,99.90
2019-02-27T02:00:40.095Z,99.90
2019-02-27T02:03:20.001Z,99.90
2019-02-27T02:06:00.402Z,99.90
2019-02-27T02:08:39.621Z,99.90
2019-02-27T02:11:19.770Z,99.90
2019-02-27T02:14:44.362Z,99.90
2019-02-27T02:18:51.296Z,99.90
2019-02-27T02:22:34.053Z,99.90
2019-02-27T02:25:40.322Z,99.90
2019-02-27T02:29:26.246Z,99.90
2019-02-27T02:32:30.380Z,99.90
2019-02-27T02:36:12.984Z,99.90
2019-02-27T02:39:39.587Z,99.90
2019-02-27T02:43:03.464Z,99.90
2019-02-27T02:46:12.378Z,99.90
2019-02-27T02:49:44.660Z,99.90
2019-02-27T02:53:17.246Z,99.90
2019-02-27T02:56:43.433Z,99.90
2019-02-27T03:00:01.266Z,99.90
2019-02-27T03:03:37.274Z,99.90
2019-02-27T03:07:14.522Z,99.90
2019-02-27T03:10:18.344Z,99.90
2019-02-27T03:13:43.602Z,99.90
2019-02-27T03:16:52.632Z,99.90
2019-02-27T03:20:17.633Z,99.90
2019-02-27T03:23:52.511Z,99.90
2019-02-27T03:26:59.602Z,99.90
2019-02-27T03:30:36.477Z,99.90
2019-02-27T03:34:32.875Z,99.90
2019-02-27T03:38:25.903Z,99.90
2019-02-27T03:41:22.575Z,99.90
2019-02-27T03:44:31.793Z,99.90
2019-02-27T03:48:12.494Z,99.90
2019-02-27T03:51:37.521Z,99.90
2019-02-27T03:54:41.105Z,99.90
2019-02-27T03:58:05.473Z,99.90
2019-02-27T04:01:30.595Z,99.90
2019-02-27T04:04:34.774Z,99.90
2019-02-27T04:08:33.247Z,99.90
2019-02-27T04:11:12.452Z,99.90
2019-02-27T04:13:53.323Z,99.90
2019-02-27T04:16:33.016Z,99.90
2019-02-27T04:19:13.873Z,99.90
2019-02-27T04:21:53.041Z,99.90
2019-02-27T04:24:32.172Z,99.90
2019-02-27T04:27:11.389Z,99.90
2019-02-27T04:29:50.542Z,99.90
2019-02-27T04:32:30.199Z,99.90
2019-02-27T04:35:09.740Z,99.90
2019-02-27T04:37:54.114Z,99.90
2019-02-27T04:40:30.409Z,99.90
2019-02-27T04:43:10.101Z,99.90
2019-02-27T04:45:49.955Z,99.90
2019-02-27T04:48:29.924Z,99.90
2019-02-27T04:51:10.095Z,99.90
2019-02-27T04:53:50.632Z,99.90
2019-02-27T04:56:29.941Z,99.90
2019-02-27T04:59:09.024Z,99.90
2019-02-27T05:01:48.660Z,99.90
2019-02-27T05:04:28.030Z,99.90
2019-02-27T05:07:07.419Z,99.90
2019-02-27T05:09:46.540Z,99.90
2019-02-27T05:12:25.979Z,99.90
2019-02-27T05:15:06.029Z,99.90
2019-02-27T05:17:45.893Z,99.90
2019-02-27T05:20:25.111Z,99.90
2019-02-27T05:23:04.549Z,99.90
2019-02-27T05:25:43.677Z,99.90
2019-02-27T05:28:23.125Z,99.90
2019-02-27T05:31:02.804Z,99.90
2019-02-27T05:33:43.239Z,99.90
2019-02-27T05:36:24.409Z,99.90
2019-02-27T05:39:06.273Z,99.90
2019-02-27T05:41:45.435Z,99.90
2019-02-27T05:44:24.672Z,99.90
2019-02-27T05:47:03.890Z,99.90
2019-02-27T05:49:43.140Z,99.90
2019-02-27T05:52:22.400Z,99.90
2019-02-27T05:55:06.039Z,99.90
2019-02-27T05:57:42.710Z,99.90
2019-02-27T06:00:22.413Z,99.90
2019-02-27T06:03:03.234Z,99.90
2019-02-27T06:05:49.400Z,99.90
2019-02-27T06:08:24.089Z,99.90
2019-02-27T06:11:04.558Z,99.90
2019-02-27T06:13:44.995Z,99.90
2019-02-27T06:16:24.639Z,99.90
2019-02-27T06:19:03.870Z,99.90
2019-02-27T06:21:43.214Z,99.90
2019-02-27T06:24:22.495Z,99.90
2019-02-27T06:27:06.410Z,99.90
2019-02-27T06:29:46.056Z,99.90
2019-02-27T06:32:27.381Z,99.90
2019-02-27T06:35:07.878Z,99.90
2019-02-27T06:37:50.448Z,99.90
2019-02-27T06:40:28.658Z,99.90
2019-02-27T06:43:09.047Z,99.90
2019-02-27T06:45:48.297Z,99.90
2019-02-27T06:48:27.750Z,99.90
2019-02-27T06:51:07.772Z,99.90
2019-02-27T06:53:47.752Z,99.90
2019-02-27T06:56:26.888Z,99.90
2019-02-27T06:59:08.892Z,99.90
2019-02-27T07:01:54.533Z,99.90
2019-02-27T07:04:39.201Z,99.90
2019-02-27T07:07:15.695Z,99.90
2019-02-27T07:09:54.919Z,99.90
2019-02-27T07:12:34.800Z,99.90
2019-02-27T07:15:19.492Z,99.90
2019-02-27T07:17:58.747Z,99.90
2019-02-27T07:20:38.239Z,99.90
2019-02-27T07:23:22.741Z,99.90
2019-02-27T07:25:58.460Z,99.90
2019-02-27T07:28:38.564Z,99.90
2019-02-27T07:31:18.521Z,99.90
2019-02-27T07:33:58.892Z,99.90
2019-02-27T07:36:40.078Z,99.90
2019-02-27T07:39:19.742Z,99.90
2019-02-27T07:41:59.745Z,99.90
2019-02-27T07:44:44.089Z,99.90
2019-02-27T07:47:23.987Z,99.90
2019-02-27T07:50:06.338Z,99.90
2019-02-27T07:52:45.658Z,99.90
2019-02-27T07:55:28.865Z,99.90
2019-02-27T07:58:08.612Z,99.90
2019-02-27T08:00:49.826Z,99.90
2019-02-27T08:03:29.571Z,99.80
2019-02-27T08:06:09.038Z,93.80
2019-02-27T08:08:48.892Z,86.80
2019-02-27T08:11:28.423Z,83.80
2019-02-27T08:14:08.218Z,76.30
2019-02-27T08:16:49.313Z,74.40
2019-02-27T08:19:30.617Z,71.50
2019-02-27T08:22:11.114Z,70.20
2019-02-27T08:24:50.873Z,67.70
2019-02-27T08:27:30.527Z,66.40
2019-02-27T08:30:15.668Z,65.00
2019-02-27T08:32:55.249Z,61.60
2019-02-27T08:35:35.005Z,63.60
2019-02-27T08:38:14.521Z,62.50
2019-02-27T08:40:57.559Z,60.70
2019-02-27T08:43:35.894Z,58.80
2019-02-27T08:46:15.877Z,58.10
2019-02-27T08:48:55.413Z,53.90
2019-02-27T08:51:35.210Z,52.80
2019-02-27T08:54:14.828Z,51.00
2019-02-27T08:56:54.623Z,50.80
2019-02-27T08:59:37.034Z,50.40
2019-02-27T09:02:16.410Z,50.40
2019-02-27T09:04:56.137Z,50.60
2019-02-27T09:07:36.367Z,50.30
2019-02-27T09:10:16.910Z,50.10
2019-02-27T09:13:04.816Z,50.10
2019-02-27T09:15:37.931Z,47.60
2019-02-27T09:18:17.939Z,47.90
2019-02-27T09:20:57.464Z,48.70
2019-02-27T09:23:37.108Z,47.40
2019-02-27T09:26:16.632Z,47.60
2019-02-27T09:28:56.311Z,47.80
2019-02-27T09:31:37.751Z,48.30
2019-02-27T09:34:19.197Z,48.60
2019-02-27T09:36:58.742Z,47.90
2019-02-27T09:39:40.841Z,47.80
2019-02-27T09:42:21.185Z,47.10
2019-02-27T09:45:00.775Z,46.10
2019-02-27T09:47:40.371Z,45.10
2019-02-27T09:50:35.518Z,45.80
2019-02-27T09:53:15.353Z,45.90
2019-02-27T09:55:59.991Z,45.50
2019-02-27T09:58:45.300Z,43.70
2019-02-27T10:01:21.320Z,42.80
2019-02-27T10:04:01.246Z,42.40
2019-02-27T10:06:42.851Z,42.50
2019-02-27T10:09:24.713Z,42.60
2019-02-27T10:12:04.241Z,42.60
2019-02-27T10:14:43.954Z,43.00
2019-02-27T10:17:24.218Z,42.80
2019-02-27T10:20:03.948Z,41.80
2019-02-27T10:22:47.297Z,40.30
2019-02-27T10:25:28.227Z,40.20
2019-02-27T10:28:08.162Z,42.20
2019-02-27T10:30:50.102Z,41.80
2019-02-27T10:33:29.543Z,41.70
2019-02-27T10:36:10.695Z,40.40
2019-02-27T10:38:50.555Z,38.80
2019-02-27T10:41:33.226Z,39.40
2019-02-27T10:44:13.051Z,40.00
2019-02-27T10:46:52.744Z,40.20
2019-02-27T10:49:32.416Z,40.40
2019-02-27T10:52:12.029Z,40.90
2019-02-27T10:54:51.986Z,40.00
2019-02-27T10:57:31.915Z,37.40
2019-02-27T11:00:28.546Z,37.80
2019-02-27T11:03:09.881Z,38.40
2019-02-27T11:05:52.285Z,37.50
2019-02-27T11:08:31.114Z,37.80
2019-02-27T11:11:13.157Z,36.20
2019-02-27T11:13:55.282Z,36.60
2019-02-27T11:16:34.185Z,35.00
2019-02-27T11:19:14.141Z,35.30
2019-02-27T11:21:58.485Z,34.90
2019-02-27T11:24:38.942Z,35.80
2019-02-27T11:27:18.753Z,33.90
2019-02-27T11:30:01.261Z,34.80
2019-02-27T11:32:39.986Z,33.80
2019-02-27T11:35:22.050Z,34.30
2019-02-27T11:38:01.107Z,33.40
2019-02-27T11:40:42.655Z,33.60
2019-02-27T11:43:21.967Z,33.50
2019-02-27T11:46:01.628Z,33.10
2019-02-27T11:48:41.409Z,33.50
2019-02-27T11:51:20.947Z,33.70
2019-02-27T11:54:04.289Z,33.70
2019-02-27T11:56:43.980Z,33.00
2019-02-27T11:59:23.845Z,32.60
2019-02-27T12:02:03.433Z,33.00
2019-02-27T12:04:43.193Z,34.00
2019-02-27T12:07:23.008Z,35.20
2019-02-27T12:10:02.710Z,33.50
2019-02-27T12:12:43.232Z,34.50
2019-02-27T12:15:23.283Z,33.90
2019-02-27T12:18:02.820Z,33.00
2019-02-27T12:20:42.360Z,33.10
2019-02-27T12:23:23.193Z,33.30
2019-02-27T12:26:03.208Z,33.30
2019-02-27T12:28:42.888Z,34.20
2019-02-27T12:31:23.228Z,33.50
2019-02-27T12:34:03.948Z,33.70
2019-02-27T12:36:44.062Z,35.10
2019-02-27T12:39:23.807Z,33.60
2019-02-27T12:42:04.144Z,34.40
2019-02-27T12:44:47.670Z,34.70
2019-02-27T12:47:27.621Z,33.70
2019-02-27T12:50:09.522Z,35.00
2019-02-27T12:52:49.320Z,35.00
2019-02-27T12:55:28.944Z,35.80
2019-02-27T12:58:09.747Z,36.00
2019-02-27T13:00:50.425Z,35.00
2019-02-27T13:03:29.915Z,34.20
2019-02-27T13:06:09.910Z,34.70
2019-02-27T13:08:52.652Z,34.70
2019-02-27T13:11:30.667Z,35.30
2019-02-27T13:14:10.334Z,35.60
2019-02-27T13:16:50.276Z,35.40
2019-02-27T13:19:31.955Z,35.50
2019-02-27T13:22:11.489Z,34.70
2019-02-27T13:24:51.534Z,34.40
2019-02-27T13:27:31.030Z,35.30
2019-02-27T13:30:13.692Z,36.20
2019-02-27T13:32:53.689Z,36.80
2019-02-27T13:35:33.406Z,35.70
2019-02-27T13:38:17.475Z,35.30
2019-02-27T13:40:57.305Z,34.90
2019-02-27T13:43:37.143Z,36.20
2019-02-27T13:46:17.143Z,38.00
2019-02-27T13:48:56.622Z,37.30
2019-02-27T13:51:38.401Z,36.80
2019-02-27T13:54:17.626Z,37.90
2019-02-27T13:56:58.525Z,37.90
2019-02-27T13:59:42.173Z,38.30
2019-02-27T14:02:27.869Z,39.40
2019-02-27T14:05:07.738Z,38.50
2019-02-27T14:07:47.664Z,38.80
2019-02-27T14:10:28.538Z,39.30
2019-02-27T14:13:09.702Z,38.10
2019-02-27T14:15:50.750Z,39.30
2019-02-27T14:18:30.346Z,40.80
2019-02-27T14:21:10.580Z,39.00
2019-02-27T14:23:53.778Z,40.40
2019-02-27T14:26:33.197Z,41.00
2019-02-27T14:29:12.854Z,40.40
2019-02-27T14:31:52.359Z,40.10
2019-02-27T14:34:32.048Z,41.40
2019-02-27T14:37:16.231Z,40.20
2019-02-27T14:39:54.006Z,41.20
2019-02-27T14:42:33.449Z,41.10
2019-02-27T14:45:16.380Z,42.10
2019-02-27T14:47:55.849Z,41.20
2019-02-27T14:50:35.865Z,42.20
2019-02-27T14:53:16.623Z,42.00
2019-02-27T14:55:56.688Z,43.10
2019-02-27T14:58:36.072Z,44.00
2019-02-27T15:01:17.387Z,45.40
2019-02-27T15:03:56.878Z,45.90
2019-02-27T15:06:36.462Z,46.00
2019-02-27T15:09:19.775Z,46.40
2019-02-27T15:11:59.570Z,46.90
2019-02-27T15:14:40.308Z,47.00
2019-02-27T15:17:20.452Z,46.90
2019-02-27T15:20:01.840Z,47.40
2019-02-27T15:22:43.304Z,46.80
2019-02-27T15:25:24.495Z,47.20
2019-02-27T15:28:07.334Z,49.10
2019-02-27T15:30:47.381Z,49.00
2019-02-27T15:33:27.815Z,49.80
2019-02-27T15:36:07.474Z,50.90
2019-02-27T15:38:47.414Z,53.70
2019-02-27T15:41:26.739Z,56.20
2019-02-27T15:44:06.527Z,56.60
2019-02-27T15:46:45.914Z,58.60
2019-02-27T15:49:25.756Z,59.40
2019-02-27T15:52:06.981Z,61.60
2019-02-27T15:54:49.563Z,61.40
2019-02-27T15:57:30.540Z,63.70
2019-02-27T16:00:17.740Z,65.00
2019-02-27T16:02:54.348Z,67.90
2019-02-27T16:05:35.610Z,68.10
2019-02-27T16:08:15.416Z,70.80
2019-02-27T16:10:55.383Z,73.20
2019-02-27T16:13:35.412Z,74.20
2019-02-27T16:16:15.567Z,75.50
2019-02-27T16:18:54.996Z,81.80
2019-02-27T16:21:34.570Z,85.20
2019-02-27T16:24:17.156Z,91.10
2019-02-27T16:26:57.983Z,94.30
2019-02-27T16:29:38.095Z,95.60
2019-02-27T16:32:17.876Z,98.60
2019-02-27T16:34:57.316Z,99.90
2019-02-27T16:37:36.958Z,99.90
2019-02-27T16:40:18.644Z,99.90
2019-02-27T16:42:59.799Z,99.90
2019-02-27T16:45:39.646Z,99.90
2019-02-27T16:48:21.780Z,99.90
2019-02-27T16:51:01.107Z,99.90
2019-02-27T16:53:43.081Z,99.90
2019-02-27T16:56:22.541Z,99.90
2019-02-27T16:59:07.681Z,99.90
2019-02-27T17:01:45.212Z,99.90
2019-02-27T17:04:25.383Z,99.90
2019-02-27T17:07:05.498Z,99.90
2019-02-27T17:09:45.554Z,99.90
2019-02-27T17:12:25.320Z,99.90
2019-02-27T17:15:05.450Z,99.90
2019-02-27T17:17:45.291Z,99.90
2019-02-27T17:20:27.211Z,99.90
2019-02-27T17:23:10.878Z,99.90
2019-02-27T17:25:50.191Z,99.90
2019-02-27T17:28:29.990Z,99.90
2019-02-27T17:31:12.317Z,99.90
2019-02-27T17:33:54.091Z,99.90
2019-02-27T17:36:34.248Z,99.90
2019-02-27T17:39:14.193Z,99.90
2019-02-27T17:41:54.312Z,99.90
2019-02-27T17:44:35.334Z,99.90
2019-02-27T17:47:15.562Z,99.90
2019-02-27T17:49:57.431Z,99.90
2019-02-27T17:52:38.502Z,99.90
2019-02-27T17:55:18.638Z,99.90
2019-02-27T17:57:59.985Z,99.90
2019-02-27T18:00:41.648Z,99.90
2019-02-27T18:03:21.682Z,99.90
2019-02-27T18:06:01.636Z,99.90
2019-02-27T18:08:42.553Z,99.90
2019-02-27T18:11:23.053Z,99.90
2019-02-27T18:14:02.885Z,99.90
2019-02-27T18:16:50.121Z,99.90
2019-02-27T18:19:30.355Z,99.90
2019-02-27T18:22:14.722Z,99.90
2019-02-27T18:24:55.046Z,99.90
2019-02-27T18:27:34.985Z,99.90
2019-02-27T18:30:20.209Z,99.90
2019-02-27T18:33:01.175Z,99.90
2019-02-27T18:35:41.569Z,99.90
2019-02-27T18:38:27.476Z,99.90
2019-02-27T18:41:03.195Z,99.90
2019-02-27T18:43:43.138Z,99.90
2019-02-27T18:46:24.695Z,99.90
2019-02-27T18:49:04.747Z,99.90
2019-02-27T18:51:46.874Z,99.90
2019-02-27T18:54:29.534Z,99.90
2019-02-27T18:57:11.899Z,99.90
2019-02-27T18:59:51.065Z,99.90
2019-02-27T19:02:30.942Z,99.90
2019-02-27T19:05:13.088Z,99.90
2019-02-27T19:07:54.829Z,99.90
2019-02-27T19:10:34.853Z,99.90
2019-02-27T19:13:14.876Z,99.90
2019-02-27T19:15:54.833Z,99.90
2019-02-27T19:18:34.558Z,99.90
2019-02-27T19:21:15.793Z,99.90
2019-02-27T19:23:55.879Z,99.90
2019-02-27T19:26:36.301Z,99.90
2019-02-27T19:29:16.590Z,99.90
2019-02-27T19:31:56.760Z,99.90
2019-02-27T19:34:36.767Z,99.90
2019-02-27T19:37:16.510Z,99.90
2019-02-27T19:39:57.088Z,99.90
2019-02-27T19:42:37.144Z,99.90
2019-02-27T19:45:17.226Z,99.90
2019-02-27T19:47:57.474Z,99.90
2019-02-27T19:50:37.605Z,99.90
2019-02-27T19:53:17.387Z,99.90
2019-02-27T19:56:00.650Z,99.90
2019-02-27T19:58:38.722Z,99.90
2019-02-27T20:01:18.908Z,99.90
2019-02-27T20:03:58.607Z,99.90
2019-02-27T20:06:38.541Z,99.90
2019-02-27T20:09:20.147Z,99.90
2019-02-27T20:12:00.287Z,99.90
2019-02-27T20:14:40.102Z,99.90
2019-02-27T20:17:39.687Z,99.90
2019-02-27T20:20:21.830Z,99.90
2019-02-27T20:23:03.907Z,99.90
2019-02-27T20:25:44.500Z,99.90
2019-02-27T20:28:25.763Z,99.90
2019-02-27T20:31:09.273Z,99.90
2019-02-27T20:33:55.061Z,99.90
2019-02-27T20:36:35.336Z,99.90
2019-02-27T20:39:18.155Z,99.90
2019-02-27T20:41:59.176Z,99.90
2019-02-27T20:44:39.148Z,99.90
2019-02-27T20:47:21.831Z,99.90
2019-02-27T20:50:02.105Z,99.90
2019-02-27T20:52:43.008Z,99.90
2019-02-27T20:55:22.791Z,99.90
2019-02-27T20:58:02.952Z,99.90
2019-02-27T21:00:43.091Z,99.90
2019-02-27T21:03:26.735Z,99.90
2019-02-27T21:06:05.149Z,99.90
2019-02-27T21:08:45.831Z,99.90
2019-02-27T21:11:29.538Z,99.90
2019-02-27T21:14:15.647Z,99.90
2019-02-27T21:16:56.439Z,99.90
2019-02-27T21:19:37.240Z,99.90
2019-02-27T21:22:18.241Z,99.90
2019-02-27T21:24:58.412Z,99.90
2019-02-27T21:27:38.287Z,99.90
2019-02-27T21:30:19.135Z,99.90
2019-02-27T21:32:59.370Z,99.90
2019-02-27T21:35:39.474Z,99.90
2019-02-27T21:38:20.252Z,99.90
2019-02-27T21:41:00.469Z,99.90
2019-02-27T21:43:40.165Z,99.90
2019-02-27T21:46:20.407Z,99.90
2019-02-27T21:49:00.290Z,99.90
2019-02-27T21:51:40.640Z,99.90
2019-02-27T21:54:23.104Z,99.90
2019-02-27T21:57:04.173Z,99.90
2019-02-27T21:59:45.882Z,99.90
2019-02-27T22:02:27.231Z,99.90
2019-02-27T22:05:09.118Z,99.90
2019-02-27T22:07:49.131Z,99.90
2019-02-27T22:10:29.033Z,99.90
2019-02-27T22:13:10.537Z,99.90
2019-02-27T22:15:55.879Z,99.90
2019-02-27T22:18:34.358Z,99.90
2019-02-27T22:21:17.477Z,99.90
2019-02-27T22:23:57.170Z,99.90
2019-02-27T22:26:37.582Z,99.90
2019-02-27T22:29:18.675Z,99.90
2019-02-27T22:31:58.563Z,99.90
2019-02-27T22:34:39.039Z,99.90
2019-02-27T22:37:18.888Z,99.90
2019-02-27T22:40:06.302Z,99.90
2019-02-27T22:42:45.513Z,99.90
2019-02-27T22:45:25.195Z,99.90
2019-02-27T22:48:05.093Z,99.90
2019-02-27T22:50:45.319Z,99.90
2019-02-27T22:53:26.189Z,99.90
2019-02-27T22:56:07.645Z,99.90
2019-02-27T22:58:51.420Z,99.90
2019-02-27T23:01:49.325Z,99.90
2019-02-27T23:04:30.032Z,99.90
2019-02-27T23:07:09.943Z,99.90
2019-02-27T23:09:49.768Z,99.90
2019-02-27T23:12:31.180Z,99.90
2019-02-27T23:15:12.700Z,99.90
2019-02-27T23:17:52.111Z,99.90
2019-02-27T23:20:31.719Z,99.90
2019-02-27T23:23:11.930Z,99.90
2019-02-27T23:25:51.977Z,99.90
2019-02-27T23:28:52.244Z,99.90
2019-02-27T23:31:35.762Z,99.90
2019-02-27T23:34:15.104Z,99.90
2019-02-27T23:36:55.830Z,99.90
2019-02-27T23:39:39.552Z,99.90
2019-02-27T23:42:17.401Z,99.90
2019-02-27T23:44:57.113Z,99.90
2019-02-27T23:47:36.750Z,99.90
2019-02-27T23:50:16.674Z,99.90
2019-02-27T23:52:56.011Z,99.90
2019-02-27T23:55:35.393Z,99.90
2019-02-27T23:58:14.863Z,99.90
